createdAt,value
2022-11-12T00:01:19.203Z,7.09
2022-11-12T00:04:05.267Z,7.20
2022-11-12T00:06:51.463Z,7.21
2022-11-12T00:09:37.352Z,7.28
2022-11-12T00:12:23.336Z,7.24
2022-11-12T00:15:09.899Z,7.32
2022-11-12T00:17:55.812Z,7.42
2022-11-12T00:20:41.748Z,7.48
2022-11-12T00:23:27.549Z,7.54
2022-11-12T00:26:13.635Z,7.56
2022-11-12T00:28:59.660Z,7.63
2022-11-12T00:31:45.273Z,7.73
2022-11-12T00:34:31.410Z,7.82
2022-11-12T00:37:17.303Z,7.88
2022-11-12T00:40:03.379Z,7.95
2022-11-12T00:42:52.374Z,7.98
2022-11-12T00:45:38.346Z,8.00
2022-11-12T00:48:24.807Z,7.97
2022-11-12T00:51:10.988Z,7.94
2022-11-12T00:53:56.698Z,7.97
2022-11-12T00:56:42.729Z,7.99
2022-11-12T00:59:28.558Z,7.99
2022-11-12T01:02:14.457Z,7.93
2022-11-12T01:05:00.377Z,7.94
2022-11-12T01:07:46.214Z,7.92
2022-11-12T01:10:31.938Z,7.89
2022-11-12T01:13:17.833Z,7.80
2022-11-12T01:16:19.848Z,7.82
2022-11-12T01:19:10.600Z,7.77
2022-11-12T01:21:56.512Z,7.73
2022-11-12T01:24:42.552Z,7.71
2022-11-12T01:27:28.543Z,7.63
2022-11-12T01:30:14.565Z,7.61
2022-11-12T01:33:00.503Z,7.62
2022-11-12T01:35:46.487Z,7.60
2022-11-12T01:38:38.189Z,7.57
2022-11-12T01:41:29.981Z,7.59
2022-11-12T01:44:29.152Z,7.59
2022-11-12T01:47:31.550Z,7.68
2022-11-12T01:50:34.954Z,7.45
2022-11-12T01:53:26.673Z,7.41
2022-11-12T01:56:15.262Z,7.30
2022-11-12T01:59:14.434Z,7.24
2022-11-12T02:02:00.579Z,7.24
2022-11-12T02:04:50.601Z,7.34
2022-11-12T02:07:40.692Z,7.28
2022-11-12T02:10:28.382Z,7.19
2022-11-12T02:13:33.087Z,7.15
2022-11-12T02:16:43.063Z,7.19
2022-11-12T02:19:35.939Z,7.13
2022-11-12T02:22:24.802Z,7.16
2022-11-12T02:25:23.424Z,7.40
2022-11-12T02:28:09.440Z,7.57
2022-11-12T02:30:55.244Z,7.57
2022-11-12T02:33:41.390Z,7.60
2022-11-12T02:36:31.060Z,7.65
2022-11-12T02:39:17.665Z,7.63
2022-11-12T02:42:04.339Z,7.65
2022-11-12T02:44:53.927Z,7.62
2022-11-12T02:47:39.719Z,7.43
2022-11-12T02:50:30.642Z,7.14
2022-11-12T02:53:17.916Z,7.02
2022-11-12T02:56:09.823Z,7.09
2022-11-12T02:59:12.365Z,7.11
2022-11-12T03:01:58.492Z,7.18
2022-11-12T03:04:49.291Z,7.42
2022-11-12T03:07:37.782Z,7.48
2022-11-12T03:10:30.194Z,7.46
2022-11-12T03:13:18.132Z,7.61
2022-11-12T03:16:07.788Z,7.62
2022-11-12T03:18:54.766Z,7.44
2022-11-12T03:21:41.109Z,7.48
2022-11-12T03:24:28.177Z,7.44
2022-11-12T03:27:22.271Z,7.33
2022-11-12T03:30:10.183Z,7.30
2022-11-12T03:33:13.102Z,7.51
2022-11-12T03:36:05.156Z,7.51
2022-11-12T03:38:53.944Z,7.32
2022-11-12T03:41:43.616Z,7.46
2022-11-12T03:44:29.718Z,7.38
2022-11-12T03:47:15.886Z,7.28
2022-11-12T03:50:06.584Z,7.13
2022-11-12T03:53:06.237Z,7.04
2022-11-12T03:55:52.432Z,6.95
2022-11-12T03:58:38.551Z,6.91
2022-11-12T04:01:24.940Z,6.94
2022-11-12T04:04:13.597Z,6.99
2022-11-12T04:07:28.327Z,7.05
2022-11-12T04:10:17.184Z,7.17
2022-11-12T04:13:21.645Z,7.15
2022-11-12T04:16:39.610Z,7.13
2022-11-12T04:19:44.347Z,7.19
2022-11-12T04:22:30.373Z,7.13
2022-11-12T04:25:34.992Z,7.07
2022-11-12T04:28:21.078Z,7.04
2022-11-12T04:31:10.266Z,7.02
2022-11-12T04:34:16.721Z,7.02
2022-11-12T04:37:05.771Z,7.02
2022-11-12T04:39:53.455Z,7.04
2022-11-12T04:43:03.968Z,7.05
2022-11-12T04:45:53.835Z,7.08
2022-11-12T04:48:50.013Z,7.23
2022-11-12T04:51:59.546Z,7.39
2022-11-12T04:54:56.499Z,7.30
2022-11-12T04:57:57.599Z,7.34
2022-11-12T05:00:47.699Z,7.21
2022-11-12T05:03:39.059Z,7.21
2022-11-12T05:06:46.646Z,7.20
2022-11-12T05:09:36.868Z,7.04
2022-11-12T05:15:25.789Z,7.01
2022-11-12T05:18:12.355Z,6.99
2022-11-12T05:21:18.574Z,6.99
2022-11-12T05:24:05.301Z,7.04
2022-11-12T05:26:52.096Z,7.03
2022-11-12T05:29:41.470Z,7.01
2022-11-12T05:32:28.211Z,6.98
2022-11-12T05:35:14.598Z,7.04
2022-11-12T05:38:02.328Z,7.01
2022-11-12T05:40:48.809Z,7.02
2022-11-12T05:43:36.979Z,7.09
2022-11-12T05:46:25.681Z,7.07
2022-11-12T05:49:12.286Z,7.07
2022-11-12T05:51:58.150Z,7.07
2022-11-12T05:54:47.199Z,7.08
2022-11-12T05:57:33.448Z,7.10
2022-11-12T06:00:19.612Z,7.14
2022-11-12T06:03:07.112Z,7.15
2022-11-12T06:05:54.844Z,7.13
2022-11-12T06:08:41.473Z,7.22
2022-11-12T06:11:27.353Z,7.23
2022-11-12T06:14:16.206Z,7.30
2022-11-12T06:17:03.238Z,7.34
2022-11-12T06:19:49.739Z,7.36
2022-11-12T06:22:36.182Z,7.33
2022-11-12T06:25:22.141Z,7.38
2022-11-12T06:28:10.599Z,7.45
2022-11-12T06:31:01.152Z,7.43
2022-11-12T06:33:48.241Z,7.35
2022-11-12T06:36:38.134Z,7.51
2022-11-12T06:39:25.867Z,7.70
2022-11-12T06:42:20.989Z,7.76
2022-11-12T06:45:08.110Z,7.82
2022-11-12T06:47:59.427Z,7.67
2022-11-12T06:50:45.846Z,7.50
2022-11-12T06:53:34.828Z,7.50
2022-11-12T06:56:21.128Z,7.56
2022-11-12T06:59:07.521Z,7.79
2022-11-12T07:01:54.036Z,7.83
2022-11-12T07:04:40.117Z,7.84
2022-11-12T07:07:26.176Z,7.65
2022-11-12T07:10:21.610Z,7.61
2022-11-12T07:13:11.117Z,7.64
2022-11-12T07:16:00.276Z,7.75
2022-11-12T07:18:49.417Z,7.78
2022-11-12T07:21:43.785Z,7.93
2022-11-12T07:24:36.586Z,8.07
2022-11-12T07:27:30.060Z,8.06
2022-11-12T07:30:17.125Z,7.99
2022-11-12T07:33:08.369Z,8.01
2022-11-12T07:36:10.070Z,7.97
2022-11-12T07:38:56.624Z,7.99
2022-11-12T07:41:44.408Z,8.01
2022-11-12T07:44:29.946Z,8.06
2022-11-12T07:47:15.668Z,8.06
2022-11-12T07:50:01.745Z,8.13
2022-11-12T07:52:47.549Z,8.10
2022-11-12T07:55:33.911Z,7.98
2022-11-12T07:58:19.902Z,8.04
2022-11-12T08:01:45.384Z,8.11
2022-11-12T08:04:34.794Z,8.27
2022-11-12T08:07:20.485Z,8.42
2022-11-12T08:10:08.524Z,8.39
2022-11-12T08:12:57.535Z,8.42
2022-11-12T08:15:45.756Z,8.46
2022-11-12T08:18:35.716Z,8.49
2022-11-12T08:21:22.022Z,8.38
2022-11-12T08:24:08.054Z,8.36
2022-11-12T08:26:53.693Z,8.32
2022-11-12T08:29:39.636Z,8.41
2022-11-12T08:32:25.547Z,8.34
2022-11-12T08:35:11.612Z,8.47
2022-11-12T08:38:04.102Z,8.33
2022-11-12T08:40:50.169Z,8.28
2022-11-12T08:43:38.133Z,8.40
2022-11-12T08:46:24.232Z,8.46
2022-11-12T08:49:09.912Z,8.50
2022-11-12T08:51:56.621Z,8.61
2022-11-12T08:54:42.631Z,8.67
2022-11-12T08:57:28.674Z,8.71
2022-11-12T09:00:15.249Z,8.76
2022-11-12T09:03:04.053Z,8.92
2022-11-12T09:05:51.754Z,9.01
2022-11-12T09:08:37.951Z,9.20
2022-11-12T09:11:23.975Z,9.26
2022-11-12T09:14:12.714Z,9.37
2022-11-12T09:17:01.235Z,9.52
2022-11-12T09:19:47.431Z,9.51
2022-11-12T09:22:33.591Z,9.47
2022-11-12T09:25:21.823Z,9.43
2022-11-12T09:28:14.738Z,9.52
2022-11-12T09:31:02.050Z,9.55
2022-11-12T09:33:48.093Z,9.68
2022-11-12T09:36:39.547Z,9.95
2022-11-12T09:39:25.783Z,10.12
2022-11-12T09:42:21.546Z,10.16
2022-11-12T09:45:50.284Z,10.16
2022-11-12T09:49:01.580Z,10.20
2022-11-12T09:52:01.561Z,10.28
2022-11-12T09:55:13.528Z,10.38
2022-11-12T09:57:59.294Z,10.38
2022-11-12T10:01:19.032Z,10.43
2022-11-12T10:04:58.507Z,10.53
2022-11-12T10:08:19.539Z,10.59
2022-11-12T10:12:06.311Z,10.64
2022-11-12T10:16:37.264Z,10.92
2022-11-12T10:19:56.160Z,10.86
2022-11-12T10:23:27.806Z,10.85
2022-11-12T10:26:20.443Z,10.97
2022-11-12T10:29:32.049Z,11.08
2022-11-12T10:32:17.867Z,11.01
2022-11-12T10:35:04.797Z,11.07
2022-11-12T10:38:04.848Z,11.16
2022-11-12T10:40:50.507Z,11.23
2022-11-12T10:43:36.302Z,11.41
2022-11-12T10:46:43.091Z,11.47
2022-11-12T10:49:28.788Z,11.90
2022-11-12T10:52:24.235Z,12.08
2022-11-12T10:55:23.832Z,12.16
2022-11-12T10:58:19.791Z,12.33
2022-11-12T11:01:17.743Z,12.32
2022-11-12T11:04:04.124Z,12.36
2022-11-12T11:07:02.733Z,12.44
2022-11-12T11:10:01.590Z,12.42
2022-11-12T11:12:47.322Z,12.18
2022-11-12T11:15:33.053Z,12.13
2022-11-12T11:18:18.887Z,12.14
2022-11-12T11:21:50.578Z,12.15
2022-11-12T11:25:28.539Z,12.34
2022-11-12T11:29:17.198Z,12.51
2022-11-12T11:32:45.928Z,12.82
2022-11-12T11:36:17.027Z,12.84
2022-11-12T11:40:13.546Z,12.65
2022-11-12T11:43:45.193Z,12.81
2022-11-12T11:47:21.989Z,12.76
2022-11-12T11:50:33.708Z,12.69
2022-11-12T11:54:09.229Z,12.69
2022-11-12T11:57:07.179Z,12.64
2022-11-12T12:00:12.739Z,12.46
2022-11-12T12:03:32.913Z,12.21
2022-11-12T12:06:31.505Z,12.25
2022-11-12T12:09:56.165Z,12.41
2022-11-12T12:13:21.715Z,12.57
2022-11-12T12:16:22.224Z,12.57
2022-11-12T12:19:39.513Z,12.57
2022-11-12T12:22:53.705Z,12.90
2022-11-12T12:25:54.984Z,12.73
2022-11-12T12:29:50.567Z,12.81
2022-11-12T12:32:42.941Z,13.07
2022-11-12T12:36:15.442Z,13.19
2022-11-12T12:39:42.302Z,13.49
2022-11-12T12:42:44.542Z,13.43
2022-11-12T12:45:44.695Z,13.38
2022-11-12T12:48:34.888Z,13.38
2022-11-12T12:51:22.033Z,13.57
2022-11-12T12:54:55.676Z,13.90
2022-11-12T12:57:41.845Z,13.95
2022-11-12T13:00:34.801Z,13.97
2022-11-12T13:04:09.847Z,13.80
2022-11-12T13:06:56.010Z,13.95
2022-11-12T13:09:42.356Z,13.82
2022-11-12T13:13:30.638Z,13.28
2022-11-12T13:17:06.904Z,13.42
2022-11-12T13:19:58.316Z,13.56
2022-11-12T13:22:46.935Z,13.57
2022-11-12T13:25:33.127Z,13.54
2022-11-12T13:28:19.035Z,13.48
2022-11-12T13:31:26.817Z,13.47
2022-11-12T13:34:23.303Z,13.52
2022-11-12T13:37:19.796Z,13.54
2022-11-12T13:40:22.991Z,13.62
2022-11-12T13:43:41.049Z,13.58
2022-11-12T13:46:34.656Z,13.71
2022-11-12T13:49:21.052Z,13.71
2022-11-12T13:52:06.950Z,13.72
2022-11-12T13:55:13.622Z,13.59
2022-11-12T13:57:59.772Z,13.50
2022-11-12T14:00:58.539Z,13.47
2022-11-12T14:03:50.929Z,13.22
2022-11-12T14:07:08.580Z,13.10
2022-11-12T14:10:41.073Z,13.19
2022-11-12T14:14:15.017Z,13.14
2022-11-12T14:17:52.607Z,13.11
2022-11-12T14:20:42.201Z,13.07
2022-11-12T14:23:28.653Z,12.96
2022-11-12T14:26:42.594Z,12.87
2022-11-12T14:29:34.100Z,12.81
2022-11-12T14:32:20.975Z,12.69
2022-11-12T14:35:40.453Z,12.62
2022-11-12T14:38:40.985Z,12.57
2022-11-12T14:41:41.660Z,12.58
2022-11-12T14:44:37.196Z,12.61
2022-11-12T14:47:24.213Z,12.54
2022-11-12T14:50:37.389Z,12.51
2022-11-12T14:53:38.642Z,12.48
2022-11-12T14:56:48.855Z,12.34
2022-11-12T14:59:36.419Z,12.26
2022-11-12T15:02:49.828Z,12.18
2022-11-12T15:06:09.523Z,12.13
2022-11-12T15:08:59.781Z,12.12
2022-11-12T15:11:48.464Z,12.10
2022-11-12T15:14:35.404Z,12.09
2022-11-12T15:17:34.727Z,12.08
2022-11-12T15:20:21.139Z,12.06
2022-11-12T15:23:20.345Z,12.04
2022-11-12T15:26:45.322Z,11.96
2022-11-12T15:29:36.065Z,11.81
2022-11-12T15:32:22.145Z,11.64
2022-11-12T15:35:26.917Z,11.48
2022-11-12T15:38:49.928Z,11.41
2022-11-12T15:41:59.272Z,11.30
2022-11-12T15:44:46.245Z,11.31
2022-11-12T15:47:32.068Z,11.29
2022-11-12T15:50:22.947Z,11.30
2022-11-12T15:53:08.956Z,11.30
2022-11-12T15:55:54.799Z,11.20
2022-11-12T15:58:40.528Z,11.20
2022-11-12T16:01:26.423Z,11.23
2022-11-12T16:04:13.495Z,11.28
2022-11-12T16:07:00.513Z,11.27
2022-11-12T16:09:46.283Z,11.21
2022-11-12T16:12:32.056Z,11.15
2022-11-12T16:15:25.472Z,11.14
2022-11-12T16:18:12.067Z,11.17
2022-11-12T16:20:58.305Z,11.14
2022-11-12T16:23:44.486Z,11.05
2022-11-12T16:26:32.862Z,10.95
2022-11-12T16:29:18.515Z,10.80
2022-11-12T16:32:05.252Z,10.68
2022-11-12T16:34:55.760Z,10.58
2022-11-12T16:37:47.947Z,10.55
2022-11-12T16:40:37.511Z,10.47
2022-11-12T16:43:23.512Z,10.39
2022-11-12T16:46:41.764Z,10.37
2022-11-12T16:49:27.502Z,10.33
2022-11-12T16:52:13.140Z,10.31
2022-11-12T16:55:04.311Z,10.34
2022-11-12T16:57:50.781Z,10.29
2022-11-12T17:00:36.512Z,10.20
2022-11-12T17:03:22.153Z,10.20
2022-11-12T17:06:08.030Z,10.20
2022-11-12T17:08:54.675Z,10.18
2022-11-12T17:11:40.917Z,10.19
2022-11-12T17:14:28.508Z,10.19
2022-11-12T17:17:14.711Z,10.18
2022-11-12T17:20:00.771Z,10.19
2022-11-12T17:22:46.649Z,10.18
2022-11-12T17:25:32.344Z,10.15
2022-11-12T17:28:18.483Z,10.16
2022-11-12T17:31:20.124Z,10.11
2022-11-12T17:34:07.214Z,10.06
2022-11-12T17:36:53.352Z,10.01
2022-11-12T17:39:39.168Z,10.07
2022-11-12T17:42:24.838Z,10.13
2022-11-12T17:45:10.629Z,10.13
2022-11-12T17:47:58.532Z,10.13
2022-11-12T17:50:44.705Z,10.04
2022-11-12T17:53:30.723Z,9.99
2022-11-12T17:56:22.453Z,10.03
2022-11-12T17:59:09.078Z,10.03
2022-11-12T18:01:54.965Z,10.04
2022-11-12T18:04:41.076Z,10.06
2022-11-12T18:07:27.040Z,10.02
2022-11-12T18:10:19.347Z,10.04
2022-11-12T18:13:05.549Z,9.99
2022-11-12T18:15:51.414Z,9.98
2022-11-12T18:18:38.273Z,9.92
2022-11-12T18:21:26.544Z,9.88
2022-11-12T18:24:16.450Z,9.89
2022-11-12T18:27:02.325Z,9.85
2022-11-12T18:29:48.003Z,9.80
2022-11-12T18:32:35.371Z,9.78
2022-11-12T18:35:23.610Z,9.76
2022-11-12T18:38:18.087Z,9.74
2022-11-12T18:41:12.222Z,9.68
2022-11-12T18:43:59.393Z,9.70
2022-11-12T18:46:45.315Z,9.70
2022-11-12T18:49:34.224Z,9.70
2022-11-12T18:52:20.303Z,9.69
2022-11-12T18:55:07.217Z,9.67
2022-11-12T18:57:53.282Z,9.68
2022-11-12T19:00:39.084Z,9.64
2022-11-12T19:03:25.018Z,9.60
2022-11-12T19:06:13.953Z,9.61
2022-11-12T19:09:01.373Z,9.62
2022-11-12T19:11:47.541Z,9.63
2022-11-12T19:14:33.656Z,9.57
2022-11-12T19:17:19.777Z,9.49
2022-11-12T19:20:06.912Z,9.53
2022-11-12T19:22:54.123Z,9.47
2022-11-12T19:25:39.911Z,9.45
2022-11-12T19:28:26.258Z,9.37
2022-11-12T19:31:23.165Z,9.32
2022-11-12T19:34:09.115Z,9.26
2022-11-12T19:37:11.813Z,9.16
2022-11-12T19:40:01.303Z,9.04
2022-11-12T19:42:48.052Z,8.98
2022-11-12T19:45:33.913Z,8.87
2022-11-12T19:48:19.906Z,8.80
2022-11-12T19:51:09.596Z,8.76
2022-11-12T19:53:55.428Z,8.66
2022-11-12T19:56:41.229Z,8.63
2022-11-12T19:59:27.190Z,8.67
2022-11-12T20:02:14.795Z,8.54
2022-11-12T20:05:00.905Z,8.41
2022-11-12T20:07:50.600Z,8.39
2022-11-12T20:10:36.840Z,8.38
2022-11-12T20:13:22.769Z,8.34
2022-11-12T20:16:11.736Z,8.35
2022-11-12T20:18:57.542Z,8.36
2022-11-12T20:21:43.958Z,8.29
2022-11-12T20:24:30.325Z,8.20
2022-11-12T20:27:17.661Z,8.31
2022-11-12T20:30:04.830Z,8.33
2022-11-12T20:32:51.460Z,8.29
2022-11-12T20:35:37.926Z,8.30
2022-11-12T20:38:24.909Z,8.17
2022-11-12T20:41:19.328Z,8.08
2022-11-12T20:44:05.743Z,7.98
2022-11-12T20:46:51.523Z,8.06
2022-11-12T20:49:37.489Z,8.05
2022-11-12T20:52:23.339Z,8.02
2022-11-12T20:55:09.439Z,8.05
2022-11-12T20:57:57.727Z,8.07
2022-11-12T21:00:43.787Z,7.83
2022-11-12T21:03:31.210Z,7.67
2022-11-12T21:06:22.269Z,7.56
2022-11-12T21:09:07.905Z,7.52
2022-11-12T21:11:53.959Z,7.47
2022-11-12T21:14:39.825Z,7.39
2022-11-12T21:17:25.779Z,7.46
2022-11-12T21:20:11.882Z,7.43
2022-11-12T21:22:57.897Z,7.26
2022-11-12T21:25:43.914Z,7.31
2022-11-12T21:28:30.199Z,7.44
2022-11-12T21:31:24.800Z,7.36
2022-11-12T21:34:14.451Z,7.22
2022-11-12T21:37:01.254Z,7.13
2022-11-12T21:39:49.185Z,7.27
2022-11-12T21:42:34.835Z,7.28
2022-11-12T21:45:20.972Z,7.28
2022-11-12T21:48:06.768Z,7.31
2022-11-12T21:50:52.601Z,7.28
2022-11-12T21:53:39.995Z,7.17
2022-11-12T21:56:27.020Z,7.20
2022-11-12T21:59:13.214Z,7.32
2022-11-12T22:01:59.346Z,7.22
2022-11-12T22:04:44.971Z,7.14
2022-11-12T22:07:30.739Z,7.19
2022-11-12T22:10:17.376Z,7.21
2022-11-12T22:13:25.775Z,7.32
2022-11-12T22:16:19.629Z,7.46
2022-11-12T22:19:05.363Z,7.61
2022-11-12T22:21:51.484Z,7.63
2022-11-12T22:24:37.418Z,7.62
2022-11-12T22:27:23.726Z,7.74
2022-11-12T22:30:10.678Z,7.90
2022-11-12T22:32:56.888Z,7.96
2022-11-12T22:35:42.851Z,7.97
2022-11-12T22:38:37.554Z,8.01
2022-11-12T22:41:30.742Z,8.10
2022-11-12T22:44:16.861Z,8.18
2022-11-12T22:47:03.275Z,8.23
2022-11-12T22:49:49.379Z,8.23
2022-11-12T22:52:35.310Z,8.15
2022-11-12T22:55:21.827Z,8.16
2022-11-12T22:58:07.625Z,8.14
2022-11-12T23:00:53.599Z,8.15
2022-11-12T23:03:39.599Z,8.24
2022-11-12T23:06:27.076Z,8.33
2022-11-12T23:09:17.234Z,8.31
2022-11-12T23:12:03.409Z,8.33
2022-11-12T23:14:51.783Z,8.34
2022-11-12T23:17:37.719Z,8.37
2022-11-12T23:20:23.770Z,8.41
2022-11-12T23:23:09.748Z,8.38
2022-11-12T23:26:01.525Z,8.40
2022-11-12T23:28:48.121Z,8.40
2022-11-12T23:31:34.333Z,8.45
2022-11-12T23:34:19.875Z,8.43
2022-11-12T23:37:05.776Z,8.42
2022-11-12T23:39:51.700Z,8.45
2022-11-12T23:42:37.394Z,8.51
2022-11-12T23:45:23.591Z,8.48
2022-11-12T23:48:09.701Z,8.43
2022-11-12T23:51:21.297Z,8.40
2022-11-12T23:54:07.115Z,8.40
2022-11-12T23:56:52.883Z,8.47
2022-11-12T23:59:38.683Z,8.41
